Time;durP1;ratioP1;P1;durP2;ratioP2;P2;SDS_P1;SDS_P2;PMS_P1;PMS_P2;Temp;Humidity;BMP_temperature;BMP_pressure;BME280_temperature;BME280_humidity;BME280_pressure;Samples;Min_cycle;Max_cycle;Signal;HPM_P1;HPM_P2
2021/12/27 00:02:10;;;;;;;21.80;12.88;;;;;;;;;;5031090;28;20770;-65
2021/12/27 00:04:36;;;;;;;21.85;12.82;;;;;;;;;;4997303;28;20044;-66
2021/12/27 00:07:02;;;;;;;23.08;13.25;;;;;;;;;;5013938;28;20041;-66
2021/12/27 00:09:28;;;;;;;28.33;13.15;;;;;;;;;;5031032;28;20437;-66
2021/12/27 00:11:54;;;;;;;24.30;13.13;;;;;;;;;;5031226;28;20084;-66
2021/12/27 00:14:20;;;;;;;25.58;13.13;;;0.50;99.90;;;;;;5013544;28;20508;-66
2021/12/27 00:16:46;;;;;;;24.25;13.30;;;;;;;;;;5031352;28;20045;-66
2021/12/27 00:19:12;;;;;;;24.08;13.93;;;;;;;;;;5013332;28;20403;-66
2021/12/27 00:21:38;;;;;;;22.80;12.80;;;;;;;;;;5013636;28;20111;-67
2021/12/27 00:24:04;;;;;;;21.30;13.23;;;;;;;;;;5091152;23;20044;-74
2021/12/27 00:26:30;;;;;;;23.77;12.77;;;;;;;;;;5088644;28;20045;-74
2021/12/27 00:28:55;;;;;;;22.15;12.43;;;;;;;;;;5086345;28;20131;-74
2021/12/27 00:31:21;;;;;;;23.65;13.70;;;;;;;;;;5080341;28;20036;-75
2021/12/27 00:33:47;;;;;;;23.67;13.05;;;;;;;;;;5087551;28;20068;-75
2021/12/27 00:36:14;;;;;;;36.55;16.45;;;;;;;;;;5087414;28;20147;-74
2021/12/27 00:38:40;;;;;;;27.23;14.02;;;;;;;;;;5056544;28;20056;-75
2021/12/27 00:41:06;;;;;;;24.77;13.43;;;;;;;;;;5053705;28;20048;-75
2021/12/27 00:43:32;;;;;;;24.70;14.45;;;;;;;;;;5070684;28;20060;-75
2021/12/27 00:45:58;;;;;;;24.52;13.77;;;;;;;;;;5053793;28;20079;-75
2021/12/27 00:48:24;;;;;;;23.58;13.27;;;0.40;99.90;;;;;;5054143;28;20127;-75
2021/12/27 00:50:50;;;;;;;24.98;13.93;;;;;;;;;;5053403;28;20044;-75
2021/12/27 00:53:16;;;;;;;22.55;13.63;;;;;;;;;;5070242;28;20048;-75
2021/12/27 00:55:42;;;;;;;26.55;14.57;;;;;;;;;;5070031;28;20056;-75
2021/12/27 00:58:08;;;;;;;23.08;13.82;;;;;;;;;;5070382;28;20127;-75
2021/12/27 01:00:35;;;;;;;25.70;14.45;;;;;;;;;;5070029;28;20532;-75
2021/12/27 01:03:01;;;;;;;24.73;13.88;;;;;;;;;;5069852;28;20048;-75
2021/12/27 01:05:27;;;;;;;26.65;14.27;;;;;;;;;;5053342;28;20041;-75
2021/12/27 01:07:53;;;;;;;25.10;15.15;;;;;;;;;;5070053;28;20117;-75
2021/12/27 01:11:00;;;;;;;25.67;14.70;;;;;;;;;;5069467;28;20396;-75
2021/12/27 01:15:51;;;;;;;28.58;15.13;;;0.50;99.90;;;;;;5073773;28;20050;-74
2021/12/27 01:18:18;;;;;;;26.95;14.10;;;0.50;99.90;;;;;;5073669;28;20041;-75
2021/12/27 01:20:45;;;;;;;25.90;13.50;;;;;;;;;;5073194;28;20452;-75
2021/12/27 01:23:11;;;;;;;25.30;13.73;;;;;;;;;;5073487;28;20491;-75
2021/12/27 01:25:37;;;;;;;23.73;14.07;;;;;;;;;;5073397;28;20089;-74
2021/12/27 01:28:05;;;;;;;23.75;13.45;;;0.30;99.90;;;;;;5056614;28;20507;-75
2021/12/27 01:30:36;;;;;;;26.23;15.63;;;;;;;;;;5073077;28;20087;-75
2021/12/27 01:33:02;;;;;;;24.70;13.52;;;;;;;;;;5073577;28;20044;-75
2021/12/27 01:35:28;;;;;;;23.92;13.77;;;;;;;;;;5073281;28;20404;-75
2021/12/27 01:37:55;;;;;;;29.25;14.82;;;;;;;;;;5072910;28;20037;-75
2021/12/27 01:40:24;;;;;;;28.38;13.95;;;0.60;99.90;;;;;;5073018;28;20051;-75
2021/12/27 01:43:05;;;;;;;24.40;14.77;;;;;;;;;;5073052;28;20431;-75
2021/12/27 01:45:31;;;;;;;28.90;15.10;;;;;;;;;;5056940;28;20471;-75
2021/12/27 01:47:57;;;;;;;23.15;13.45;;;;;;;;;;5073257;28;20044;-75
2021/12/27 01:50:24;;;;;;;28.52;15.07;;;0.40;99.90;;;;;;5072812;28;20491;-75
2021/12/27 01:52:50;;;;;;;26.63;14.82;;;;;;;;;;5072891;28;20051;-75
2021/12/27 01:55:16;;;;;;;26.58;14.20;;;;;;;;;;5073010;28;20131;-75
2021/12/27 01:57:42;;;;;;;26.10;13.98;;;;;;;;;;5072714;28;20186;-76
2021/12/27 02:00:09;;;;;;;25.38;14.50;;;;;;;;;;5056352;28;20608;-75
2021/12/27 02:02:35;;;;;;;25.65;15.15;;;;;;;;;;5072687;28;20534;-74
2021/12/27 02:05:01;;;;;;;24.38;14.63;;;;;;;;;;5056107;28;20119;-73
2021/12/27 02:07:27;;;;;;;31.02;14.35;;;;;;;;;;5072790;28;20644;-75
2021/12/27 02:10:02;;;;;;;22.48;13.93;;;;;;;;;;5072859;28;20051;-74
2021/12/27 02:12:32;;;;;;;27.30;15.63;;;;;;;;;;5072881;28;20047;-75
2021/12/27 02:14:58;;;;;;;26.50;14.48;;;0.50;99.90;;;;;;5056157;28;20404;-74
2021/12/27 02:17:26;;;;;;;27.80;13.93;;;0.40;99.90;;;;;;5072666;28;20127;-74
2021/12/27 02:19:53;;;;;;;25.23;14.43;;;;;;;;;;5072361;28;20047;-75
2021/12/27 02:22:21;;;;;;;27.00;14.85;;;;;;;;;;5072238;28;20076;-75
2021/12/27 02:24:46;;;;;;;23.25;13.73;;;0.50;99.90;;;;;;5055244;28;20044;-74
2021/12/27 02:27:13;;;;;;;28.35;14.73;;;;;;;;;;5072246;28;20067;-75
2021/12/27 02:29:40;;;;;;;25.50;15.52;;;;;;;;;;5071917;28;20056;-75
2021/12/27 02:32:06;;;;;;;25.95;14.45;;;;;;;;;;5072263;28;20090;-75
2021/12/27 02:34:32;;;;;;;25.02;14.18;;;;;;;;;;5072090;28;20086;-75
2021/12/27 02:36:58;;;;;;;25.38;14.60;;;;;;;;;;5071895;28;20040;-75
2021/12/27 02:39:25;;;;;;;27.20;15.32;;;;;;;;;;5072052;28;20036;-75
2021/12/27 02:41:51;;;;;;;28.58;15.40;;;;;;;;;;5055236;28;20072;-75
2021/12/27 02:44:17;;;;;;;26.40;15.00;;;;;;;;;;5071823;28;20041;-73
2021/12/27 02:46:43;;;;;;;26.33;15.05;;;;;;;;;;5071904;28;20089;-74
2021/12/27 02:49:09;;;;;;;26.35;15.30;;;;;;;;;;5071686;28;20040;-74
2021/12/27 02:51:35;;;;;;;26.77;15.02;;;;;;;;;;5072180;28;20044;-74
2021/12/27 02:54:01;;;;;;;27.85;14.35;;;;;;;;;;5071649;28;20094;-74
2021/12/27 02:56:29;;;;;;;26.90;15.23;;;;;;;;;;5071732;28;20068;-75
2021/12/27 02:58:55;;;;;;;26.45;15.60;;;;;;;;;;5071424;28;20044;-72
2021/12/27 03:01:23;;;;;;;28.27;16.15;;;0.50;99.90;;;;;;5071750;28;20098;-75
2021/12/27 03:03:50;;;;;;;32.75;17.20;;;;;;;;;;5071208;28;20051;-75
2021/12/27 03:06:15;;;;;;;27.15;15.05;;;;;;;;;;5071272;28;20040;-75
2021/12/27 03:08:44;;;;;;;26.05;14.77;;;0.40;99.90;;;;;;5054866;28;20050;-75
2021/12/27 03:11:11;;;;;;;26.15;15.38;;;;;;;;;;5071242;28;20052;-75
2021/12/27 03:13:39;;;;;;;29.63;16.52;;;0.70;99.90;;;;;;5071321;28;20076;-75
2021/12/27 03:16:07;;;;;;;30.42;16.20;;;0.50;99.90;;;;;;5054850;28;20071;-74
2021/12/27 03:18:35;;;;;;;29.20;16.15;;;0.60;99.90;;;;;;5054849;28;20115;-74
2021/12/27 03:21:02;;;;;;;25.35;14.98;;;0.70;99.90;;;;;;5071187;28;20089;-74
2021/12/27 03:23:28;;;;;;;29.17;15.23;;;;;;;;;;5071065;28;20032;-75
2021/12/27 03:25:54;;;;;;;27.23;15.40;;;;;;;;;;5071360;28;20047;-75
2021/12/27 03:28:21;;;;;;;27.73;15.35;;;;;;;;;;5071018;28;20044;-74
2021/12/27 03:30:47;;;;;;;28.98;16.48;;;;;;;;;;5070821;28;20032;-75
2021/12/27 03:33:13;;;;;;;32.22;16.67;;;;;;;;;;5070726;28;20037;-75
2021/12/27 03:35:48;;;;;;;25.83;15.95;;;;;;;;;;5070776;28;20032;-75
2021/12/27 03:38:14;;;;;;;28.73;16.38;;;;;;;;;;5054169;28;20041;-74
2021/12/27 03:40:40;;;;;;;27.90;15.85;;;;;;;;;;5070628;28;20105;-74
2021/12/27 03:43:07;;;;;;;31.30;16.42;;;0.50;99.90;;;;;;5070883;28;20449;-75
2021/12/27 03:45:34;;;;;;;30.55;16.98;;;;;;;;;;5070861;28;20037;-75
2021/12/27 03:48:00;;;;;;;29.05;15.98;;;;;;;;;;5070972;28;20491;-75
2021/12/27 03:50:26;;;;;;;30.00;16.23;;;;;;;;;;5070430;28;20053;-75
2021/12/27 03:52:53;;;;;;;27.42;15.57;;;0.70;99.90;;;;;;5070656;28;20048;-75
2021/12/27 03:55:19;;;;;;;29.65;16.17;;;;;;;;;;5070725;28;20499;-75
2021/12/27 03:57:52;;;;;;;29.70;16.52;;;0.80;99.90;;;;;;5070694;28;20499;-74
2021/12/27 04:02:49;;;;;;;29.52;17.50;;;;;;;;;;5070834;28;20435;-76
2021/12/27 04:05:15;;;;;;;30.77;16.40;;;;;;;;;;5070678;28;20044;-75
2021/12/27 04:07:43;;;;;;;30.58;17.73;;;;;;;;;;5070886;28;20051;-76
2021/12/27 04:10:11;;;;;;;28.63;15.57;;;;;;;;;;5053555;28;20036;-75
2021/12/27 04:12:37;;;;;;;29.63;16.90;;;;;;;;;;5070381;28;20048;-74
2021/12/27 04:15:05;;;;;;;31.52;18.15;;;;;;;;;;5053983;28;20044;-75
2021/12/27 04:17:31;;;;;;;30.38;16.42;;;;;;;;;;5053732;28;20044;-75
2021/12/27 04:19:57;;;;;;;31.05;17.90;;;;;;;;;;5070377;28;20491;-75
2021/12/27 04:22:23;;;;;;;34.50;18.27;;;;;;;;;;5070544;28;20051;-75
2021/12/27 04:24:49;;;;;;;29.77;16.13;;;;;;;;;;5070482;28;20160;-74
2021/12/27 04:27:15;;;;;;;33.08;18.27;;;;;;;;;;5071868;28;20036;-75
2021/12/27 04:29:41;;;;;;;34.03;18.02;;;;;;;;;;5053130;28;20522;-75
2021/12/27 04:32:08;;;;;;;31.58;17.60;;;;;;;;;;5070388;28;20044;-75
2021/12/27 04:34:34;;;;;;;30.35;17.30;;;;;;;;;;5070232;28;20075;-75
2021/12/27 04:36:59;;;;;;;31.40;17.63;;;;;;;;;;5069970;28;20073;-75
2021/12/27 04:39:26;;;;;;;35.88;17.98;;;;;;;;;;5069623;28;20050;-74
2021/12/27 04:41:52;;;;;;;32.10;18.33;;;;;;;;;;5070289;28;20040;-74
2021/12/27 04:44:18;;;;;;;32.42;18.20;;;;;;;;;;5070010;28;20067;-75
2021/12/27 04:46:44;;;;;;;39.03;19.70;;;;;;;;;;5071062;28;20040;-74
2021/12/27 04:49:10;;;;;;;33.63;19.33;;;;;;;;;;5073821;28;20087;-75
2021/12/27 04:51:36;;;;;;;39.90;19.83;;;;;;;;;;5074216;28;20136;-75
2021/12/27 04:54:02;;;;;;;34.40;19.33;;;;;;;;;;5074301;28;20048;-74
2021/12/27 04:56:28;;;;;;;32.65;18.83;;;;;;;;;;5074024;28;20418;-74
2021/12/27 04:58:54;;;;;;;31.45;17.63;;;;;;;;;;5056908;28;20492;-74
2021/12/27 05:01:20;;;;;;;35.15;19.58;;;;;;;;;;5073923;28;20037;-75
2021/12/27 05:03:46;;;;;;;34.55;18.98;;;;;;;;;;5073673;28;20123;-74
2021/12/27 05:06:13;;;;;;;36.03;19.85;;;;;;;;;;5073980;28;20076;-74
2021/12/27 05:08:40;;;;;;;38.05;20.35;;;;;;;;;;5073552;28;20060;-74
2021/12/27 05:11:06;;;;;;;33.22;18.85;;;0.60;99.90;;;;;;5073432;28;20050;-75
2021/12/27 05:13:32;;;;;;;35.50;20.85;;;;;;;;;;5073918;28;20123;-75
2021/12/27 05:15:59;;;;;;;37.78;20.30;;;;;;;;;;5073332;28;20044;-74
2021/12/27 05:18:25;;;;;;;30.60;19.25;;;;;;;;;;5073288;28;20075;-74
2021/12/27 05:20:51;;;;;;;33.03;18.30;;;;;;;;;;5073045;28;20041;-74
2021/12/27 05:23:17;;;;;;;33.85;19.75;;;;;;;;;;5073018;28;20043;-74
2021/12/27 05:25:43;;;;;;;35.30;21.70;;;;;;;;;;5073385;28;20140;-75
2021/12/27 05:28:09;;;;;;;36.90;20.33;;;;;;;;;;5073175;28;20090;-75
2021/12/27 05:30:36;;;;;;;35.80;18.17;;;;;;;;;;5047207;28;20091;-74
2021/12/27 05:33:03;;;;;;;33.55;19.58;;;;;;;;;;5051170;28;20076;-74
2021/12/27 05:35:28;;;;;;;36.92;19.60;;;;;;;;;;5051839;28;20044;-75
2021/12/27 05:37:55;;;;;;;35.80;19.90;;;0.90;99.90;;;;;;5051240;28;20067;-74
2021/12/27 05:40:22;;;;;;;33.72;19.42;;;;;;;;;;5051301;28;20033;-74
2021/12/27 05:42:53;;;;;;;32.10;18.75;;;;;;;;;;5052176;28;20441;-75
2021/12/27 05:45:19;;;;;;;29.35;17.88;;;0.70;99.90;;;;;;5053302;28;20040;-74
2021/12/27 05:47:45;;;;;;;30.70;18.00;;;;;;;;;;5036288;28;20047;-74
2021/12/27 05:50:14;;;;;;;32.80;17.98;;;0.80;99.90;;;;;;5052877;28;20133;-74
2021/12/27 05:52:40;;;;;;;35.63;19.45;;;;;;;;;;5052995;28;20041;-74
2021/12/27 05:55:07;;;;;;;35.58;19.08;;;;;;;;;;5053259;28;20082;-75
2021/12/27 05:57:33;;;;;;;39.08;20.50;;;;;;;;;;5052824;28;20067;-75
2021/12/27 05:59:59;;;;;;;34.03;18.65;;;;;;;;;;5051535;28;20467;-74
2021/12/27 06:02:26;;;;;;;34.35;18.75;;;0.90;99.90;;;;;;5052599;28;20049;-75
2021/12/27 06:04:52;;;;;;;38.92;19.70;;;;;;;;;;5052641;28;20102;-74
2021/12/27 06:07:17;;;;;;;38.63;20.10;;;;;;;;;;5053032;28;20040;-74
2021/12/27 06:09:43;;;;;;;38.00;19.67;;;0.70;99.90;;;;;;5053795;28;20067;-74
2021/12/27 06:12:09;;;;;;;33.15;18.63;;;0.60;99.90;;;;;;5054150;28;20041;-74
2021/12/27 06:14:35;;;;;;;39.22;19.40;;;;;;;;;;5037018;28;20041;-74
2021/12/27 06:17:01;;;;;;;34.20;19.88;;;;;;;;;;5057377;28;20056;-74
2021/12/27 06:19:27;;;;;;;33.47;19.30;;;;;;;;;;5052426;28;20071;-74
2021/12/27 06:21:54;;;;;;;34.92;19.55;;;0.80;99.90;;;;;;5052814;28;20033;-74
2021/12/27 06:24:20;;;;;;;47.35;21.30;;;;;;;;;;5059688;22;20052;-65
2021/12/27 06:26:46;;;;;;;34.88;19.60;;;;;;;;;;5019020;28;20710;-67
2021/12/27 06:29:12;;;;;;;43.00;21.02;;;;;;;;;;5035089;28;20037;-65
2021/12/27 06:31:38;;;;;;;44.30;20.52;;;;;;;;;;5035021;28;20078;-65
2021/12/27 06:34:04;;;;;;;38.60;19.95;;;;;;;;;;5035019;28;20135;-65
2021/12/27 06:36:30;;;;;;;45.85;21.55;;;;;;;;;;5052869;28;20076;-66
2021/12/27 06:38:56;;;;;;;44.17;21.25;;;;;;;;;;5035240;28;20261;-66
2021/12/27 06:41:24;;;;;;;46.58;20.98;;;;;;;;;;5052630;28;20036;-67
2021/12/27 06:43:51;;;;;;;39.42;20.58;;;;;;;;;;5034751;28;20051;-65
2021/12/27 06:46:17;;;;;;;45.58;21.42;;;;;;;;;;5052742;28;20048;-65
2021/12/27 06:48:43;;;;;;;41.72;19.80;;;;;;;;;;5052876;28;20120;-66
2021/12/27 06:51:09;;;;;;;43.38;20.88;;;;;;;;;;5034400;28;20455;-64
2021/12/27 06:53:35;;;;;;;40.63;20.13;;;;;;;;;;5052508;28;20095;-66
2021/12/27 06:56:02;;;;;;;41.28;22.13;;;;;;;;;;5034690;28;20048;-67
2021/12/27 06:58:28;;;;;;;49.42;22.95;;;;;;;;;;5034741;28;20044;-66
2021/12/27 07:00:54;;;;;;;45.58;22.88;;;;;;;;;;5052072;28;20041;-65
2021/12/27 07:03:20;;;;;;;54.15;23.02;;;;;;;;;;5034567;28;20048;-65
2021/12/27 07:05:48;;;;;;;47.03;22.42;;;;;;;;;;5034322;28;20044;-65
2021/12/27 07:08:14;;;;;;;47.45;22.10;;;;;;;;;;5034378;28;20137;-66
2021/12/27 07:10:40;;;;;;;46.75;22.58;;;;;;;;;;5033957;28;20091;-66
2021/12/27 07:13:06;;;;;;;46.83;21.42;;;;;;;;;;5034246;28;20618;-66
2021/12/27 07:15:32;;;;;;;48.17;22.92;;;1.00;99.90;;;;;;5034157;28;20076;-66
2021/12/27 07:17:58;;;;;;;41.83;21.58;;;;;;;;;;5017782;28;20048;-66
2021/12/27 07:20:24;;;;;;;45.47;22.67;;;;;;;;;;5033749;28;20484;-66
2021/12/27 07:22:50;;;;;;;50.65;22.85;;;;;;;;;;5034142;28;20124;-66
2021/12/27 07:25:17;;;;;;;47.58;23.70;;;;;;;;;;5033986;28;20076;-66
2021/12/27 07:27:43;;;;;;;45.17;21.48;;;1.10;99.90;;;;;;5034042;28;20045;-66
2021/12/27 07:30:10;;;;;;;51.55;22.88;;;;;;;;;;5017222;28;20048;-66
2021/12/27 07:32:36;;;;;;;52.70;23.20;;;;;;;;;;5033926;28;20049;-68
2021/12/27 07:35:05;;;;;;;52.80;24.75;;;1.00;99.90;;;;;;5052376;28;20036;-66
2021/12/27 07:37:31;;;;;;;55.78;23.45;;;;;;;;;;5034069;28;20041;-65
2021/12/27 07:39:57;;;;;;;53.83;23.30;;;;;;;;;;5033500;28;20330;-66
2021/12/27 07:42:23;;;;;;;56.58;24.50;;;;;;;;;;5017372;28;20037;-65
2021/12/27 07:44:49;;;;;;;53.15;25.23;;;;;;;;;;5048272;28;20482;-65
2021/12/27 07:47:15;;;;;;;53.65;23.15;;;;;;;;;;5023224;28;20067;-67
2021/12/27 07:49:41;;;;;;;57.47;24.63;;;;;;;;;;5027998;28;20131;-67
2021/12/27 07:52:07;;;;;;;55.30;24.48;;;;;;;;;;5030339;28;20052;-65
2021/12/27 07:54:33;;;;;;;62.08;25.42;;;;;;;;;;5048160;28;20033;-67
2021/12/27 07:57:00;;;;;;;61.47;24.55;;;1.20;99.90;;;;;;5048453;28;20049;-66
2021/12/27 07:59:26;;;;;;;59.97;25.33;;;;;;;;;;5030313;28;20832;-67
2021/12/27 08:01:52;;;;;;;64.70;26.08;;;;;;;;;;5029193;28;20037;-67
2021/12/27 08:04:18;;;;;;;74.80;28.45;;;;;;;;;;5030224;28;20036;-66
2021/12/27 08:06:44;;;;;;;56.72;24.58;;;;;;;;;;5031634;28;20053;-67
2021/12/27 08:09:10;;;;;;;70.57;27.25;;;;;;;;;;5021978;28;20048;-66
2021/12/27 08:11:37;;;;;;;71.88;26.00;;;;;;;;;;5027081;28;20080;-65
2021/12/27 08:14:03;;;;;;;67.95;26.02;;;;;;;;;;5048116;28;20122;-66
2021/12/27 08:16:29;;;;;;;69.50;27.60;;;;;;;;;;5047932;28;20421;-66
2021/12/27 08:18:56;;;;;;;78.68;27.42;;;;;;;;;;5030036;28;20041;-66
2021/12/27 08:21:23;;;;;;;66.45;27.15;;;;;;;;;;5029361;28;20041;-68
2021/12/27 08:23:49;;;;;;;85.28;30.55;;;;;;;;;;5029765;28;20043;-67
2021/12/27 08:26:15;;;;;;;80.65;28.17;;;;;;;;;;5028225;28;20037;-65
2021/12/27 08:28:41;;;;;;;67.78;27.88;;;;;;;;;;5019188;28;20046;-67
2021/12/27 08:31:07;;;;;;;81.68;31.15;;;;;;;;;;5030007;28;20041;-65
2021/12/27 08:33:33;;;;;;;79.05;30.45;;;;;;;;;;5047748;28;20039;-66
2021/12/27 08:35:59;;;;;;;77.65;26.40;;;;;;;;;;5029953;28;20045;-69
2021/12/27 08:38:25;;;;;;;78.70;29.92;;;;;;;;;;5030217;28;20381;-68
2021/12/27 08:40:51;;;;;;;69.00;29.25;;;;;;;;;;5014818;28;20063;-70
2021/12/27 08:43:17;;;;;;;74.50;28.13;;;;;;;;;;5033639;28;20451;-71
2021/12/27 08:45:43;;;;;;;83.47;28.48;;;;;;;;;;5011868;28;20041;-67
2021/12/27 08:48:09;;;;;;;71.75;28.27;;;;;;;;;;5026554;28;20041;-65
2021/12/27 08:50:37;;;;;;;93.28;29.52;;;;;;;;;;5025849;28;20037;-68
2021/12/27 08:53:03;;;;;;;71.53;29.13;;;;;;;;;;5027630;28;20052;-66
2021/12/27 08:55:29;;;;;;;75.85;28.38;;;;;;;;;;5027794;28;20080;-66
2021/12/27 08:57:55;;;;;;;75.78;27.73;;;;;;;;;;5026216;28;20113;-66
2021/12/27 09:00:21;;;;;;;73.57;28.88;;;;;;;;;;5027082;28;20042;-67
2021/12/27 09:02:47;;;;;;;74.72;29.17;;;;;;;;;;5018253;28;20807;-64
2021/12/27 09:05:14;;;;;;;78.60;28.30;;;;;;;;;;5023547;28;20090;-66
2021/12/27 09:07:40;;;;;;;72.45;26.40;;;;;;;;;;5010906;28;20045;-66
2021/12/27 09:10:06;;;;;;;79.13;29.75;;;;;;;;;;5021984;28;20037;-65
2021/12/27 09:12:32;;;;;;;82.43;29.60;;;;;;;;;;5003343;28;20072;-65
2021/12/27 09:14:58;;;;;;;79.38;27.88;;;;;;;;;;5017695;28;20076;-65
2021/12/27 09:17:23;;;;;;;70.63;26.83;;;1.50;99.90;;;;;;5019292;28;20049;-65
2021/12/27 09:19:50;;;;;;;67.00;25.63;;;;;;;;;;5041209;28;20175;-66
2021/12/27 09:22:17;;;;;;;69.82;26.77;;;;;;;;;;5035909;28;20049;-66
2021/12/27 09:24:43;;;;;;;72.70;27.20;;;;;;;;;;5017955;28;20496;-65
2021/12/27 09:27:09;;;;;;;68.78;26.17;;;1.60;99.90;;;;;;5030565;28;20053;-64
2021/12/27 09:29:35;;;;;;;56.53;24.35;;;;;;;;;;5012820;28;20409;-66
2021/12/27 09:32:01;;;;;;;59.67;24.33;;;;;;;;;;5011966;28;20087;-65
2021/12/27 09:34:27;;;;;;;63.40;26.83;;;;;;;;;;5020843;28;20474;-65
2021/12/27 09:36:53;;;;;;;71.10;27.98;;;;;;;;;;5035590;28;20052;-65
2021/12/27 09:39:19;;;;;;;59.78;24.98;;;;;;;;;;5035692;28;20136;-68
2021/12/27 09:41:45;;;;;;;64.93;25.63;;;;;;;;;;5054758;28;20165;-68
2021/12/27 09:44:11;;;;;;;63.75;23.58;;;1.60;99.90;;;;;;5055652;28;20040;-68
2021/12/27 09:46:37;;;;;;;66.57;26.00;;;;;;;;;;5053482;28;20060;-66
2021/12/27 09:49:08;;;;;;;69.55;26.05;;;;;;;;;;5053792;28;20045;-69
2021/12/27 09:51:34;;;;;;;66.30;24.88;;;;;;;;;;5028582;28;20090;-67
2021/12/27 09:54:01;;;;;;;58.50;25.52;;;;;;;;;;5017729;28;20045;-67
2021/12/27 09:56:27;;;;;;;54.38;23.65;;;;;;;;;;5033904;28;20041;-66
2021/12/27 09:58:54;;;;;;;71.22;25.08;;;;;;;;;;5015902;28;20436;-65
2021/12/27 10:01:20;;;;;;;67.35;26.25;;;;;;;;;;5033344;28;20037;-70
2021/12/27 10:03:57;;;;;;;64.32;25.02;;;1.70;99.90;;;;;;5026264;28;20098;-70
2021/12/27 10:06:25;;;;;;;62.60;24.08;;;1.90;99.90;;;;;;5019160;28;20124;-66
2021/12/27 10:08:52;;;;;;;63.30;24.33;;;;;;;;;;5035761;28;20049;-70
2021/12/27 10:11:18;;;;;;;68.13;26.08;;;;;;;;;;5020925;28;20072;-71
2021/12/27 10:13:58;;;;;;;72.82;26.88;;;;;;;;;;5025188;28;20065;-70
2021/12/27 10:16:24;;;;;;;64.68;23.50;;;;;;;;;;5023727;28;20041;-68
2021/12/27 10:18:58;;;;;;;62.47;24.02;;;;;;;;;;5023937;28;20041;-67
2021/12/27 10:21:24;;;;;;;58.85;23.27;;;;;;;;;;5046911;28;20360;-67
2021/12/27 10:24:00;;;;;;;74.15;25.95;;;;;;;;;;5034847;28;20176;-67
2021/12/27 10:26:26;;;;;;;66.68;24.83;;;;;;;;;;5023696;28;20042;-67
2021/12/27 10:29:05;;;;;;;68.32;24.95;;;;;;;;;;5026395;28;20095;-68
2021/12/27 10:31:50;;;;;;;69.32;25.00;;;1.90;99.90;;;;;;5034693;28;20072;-67
2021/12/27 10:34:16;;;;;;;64.00;24.05;;;;;;;;;;5031246;28;20037;-67
2021/12/27 10:36:57;;;;;;;66.00;24.95;;;;;;;;;;5032858;28;20124;-68
2021/12/27 10:39:23;;;;;;;70.57;25.08;;;;;;;;;;4998739;28;20401;-67
2021/12/27 10:41:49;;;;;;;64.90;23.50;;;;;;;;;;5032219;28;20041;-67
2021/12/27 10:44:15;;;;;;;82.07;27.60;;;;;;;;;;5014446;28;20049;-67
2021/12/27 10:46:41;;;;;;;81.13;25.38;;;;;;;;;;5015242;28;20163;-67
2021/12/27 10:49:07;;;;;;;75.20;24.05;;;2.00;99.90;;;;;;5032545;28;20045;-66
2021/12/27 10:51:33;;;;;;;70.85;23.85;;;;;;;;;;5014643;28;20045;-70
2021/12/27 10:54:01;;;;;;;80.75;24.83;;;2.00;99.90;;;;;;5015267;28;20041;-67
2021/12/27 10:56:28;;;;;;;64.80;24.40;;;;;;;;;;4998575;28;20049;-67
2021/12/27 10:58:55;;;;;;;70.13;24.80;;;;;;;;;;5032653;28;20073;-67
2021/12/27 11:01:22;;;;;;;86.18;28.23;;;;;;;;;;5014862;28;20591;-67
2021/12/27 11:03:49;;;;;;;106.13;29.92;;;;;;;;;;5014837;28;20037;-66
2021/12/27 11:06:26;;;;;;;78.53;27.33;;;;;;;;;;5014712;28;20041;-67
2021/12/27 11:08:53;;;;;;;98.35;31.77;;;;;;;;;;5014290;28;20136;-66
2021/12/27 11:11:23;;;;;;;88.90;28.63;;;;;;;;;;5032308;28;20120;-68
2021/12/27 11:13:50;;;;;;;72.85;27.20;;;;;;;;;;5013906;28;20034;-67
2021/12/27 11:16:16;;;;;;;75.22;26.75;;;;;;;;;;5031179;28;20512;-69
2021/12/27 11:18:43;;;;;;;89.72;30.75;;;;;;;;;;5002721;28;20413;-70
2021/12/27 11:21:14;;;;;;;71.85;25.60;;;2.30;99.90;;;;;;5006462;28;20174;-70
2021/12/27 11:23:41;;;;;;;87.07;28.80;;;;;;;;;;5017767;28;20388;-66
2021/12/27 11:26:09;;;;;;;89.55;29.58;;;;;;;;;;5022929;28;20121;-68
2021/12/27 11:28:37;;;;;;;95.15;28.77;;;;;;;;;;5017077;28;20041;-70
2021/12/27 11:31:05;;;;;;;85.03;30.50;;;;;;;;;;5014097;28;20166;-68
2021/12/27 11:33:33;;;;;;;88.90;28.15;;;;;;;;;;5018002;28;20086;-70
2021/12/27 11:35:58;;;;;;;84.93;28.52;;;2.60;99.90;;;;;;5021764;28;20037;-68
2021/12/27 11:38:28;;;;;;;82.55;27.92;;;;;;;;;;5024526;28;20523;-67
2021/12/27 11:40:54;;;;;;;84.25;30.60;;;;;;;;;;5023434;28;20124;-66
2021/12/27 11:43:20;;;;;;;94.78;29.55;;;;;;;;;;5006185;28;20060;-67
2021/12/27 11:45:53;;;;;;;84.93;30.08;;;;;;;;;;5040315;28;20044;-70
2021/12/27 11:48:19;;;;;;;;;;;;;;;;;;5040761;28;20044;-67
2021/12/27 11:50:58;;;;;;;70.45;25.92;;;;;;;;;;5024429;28;19917;-67
2021/12/27 11:53:30;;;;;;;88.82;27.13;;;;;;;;;;5042251;28;20048;-67
2021/12/27 11:55:56;;;;;;;81.47;27.23;;;;;;;;;;5040989;28;20038;-66
2021/12/27 11:58:37;;;;;;;79.65;27.40;;;;;;;;;;5021761;28;20057;-69
2021/12/27 12:01:04;;;;;;;68.97;26.70;;;;;;;;;;5020428;28;20075;-69
2021/12/27 12:03:37;;;;;;;69.97;26.10;;;;;;;;;;5014984;28;20057;-66
2021/12/27 12:06:03;;;;;;;97.00;29.07;;;;;;;;;;5010989;28;20509;-70
2021/12/27 12:08:38;;;;;;;84.75;28.10;;;;;;;;;;5005657;28;20044;-68
2021/12/27 12:11:06;;;;;;;85.82;27.70;;;;;;;;;;5030541;28;20045;-66
2021/12/27 12:13:40;;;;;;;74.60;29.52;;;;;;;;;;5030198;28;20049;-67
2021/12/27 12:16:14;;;;;;;89.57;27.75;;;2.90;99.90;;;;;;5029117;28;20160;-67
2021/12/27 12:18:45;;;;;;;92.35;27.98;;;;;;;;;;5023035;28;20447;-69
2021/12/27 12:21:29;;;;;;;82.20;27.65;;;;;;;;;;5038099;28;20461;-67
2021/12/27 12:23:56;;;;;;;86.22;29.63;;;;;;;;;;5024439;28;20386;-66
2021/12/27 12:26:22;;;;;;;86.50;29.10;;;;;;;;;;5042089;28;20025;-69
2021/12/27 12:28:48;;;;;;;92.63;28.90;;;;;;;;;;5021846;28;20398;-67
2021/12/27 12:31:15;;;;;;;100.65;30.25;;;;;;;;;;5041333;28;20036;-67
2021/12/27 12:33:41;;;;;;;84.60;28.80;;;;;;;;;;5040516;28;20040;-68
2021/12/27 12:36:07;;;;;;;90.65;29.45;;;;;;;;;;5021929;28;20041;-68
2021/12/27 12:38:35;;;;;;;104.95;30.23;;;2.90;99.90;;;;;;5036482;28;20040;-66
2021/12/27 12:41:01;;;;;;;121.88;31.48;;;;;;;;;;5016349;28;20465;-70
2021/12/27 12:43:33;;;;;;;91.82;30.20;;;;;;;;;;5013209;28;20398;-67
2021/12/27 12:46:24;;;;;;;109.10;31.63;;;2.90;99.90;;;;;;5045938;28;20036;-66
2021/12/27 12:49:09;;;;;;;102.20;31.00;;;;;;;;;;5029041;28;20409;-67
2021/12/27 12:51:43;;;;;;;95.40;29.77;;;;;;;;;;5013380;28;20380;-67
2021/12/27 12:54:24;;;;;;;95.18;31.60;;;3.20;99.90;;;;;;5013350;28;20033;-67
2021/12/27 12:56:50;;;;;;;118.03;34.13;;;;;;;;;;5012716;28;20077;-68
2021/12/27 12:59:36;;;;;;;93.78;31.15;;;3.10;99.90;;;;;;5012507;28;20543;-67
2021/12/27 13:02:29;;;;;;;104.95;30.38;;;;;;;;;;5013203;28;20033;-67
2021/12/27 13:04:59;;;;;;;120.28;33.83;;;;;;;;;;5009999;28;20133;-68
2021/12/27 13:07:36;;;;;;;102.53;31.48;;;3.00;99.90;;;;;;5013681;28;20107;-67
2021/12/27 13:10:07;;;;;;;103.38;32.53;;;;;;;;;;5016848;28;20037;-66
2021/12/27 13:12:33;;;;;;;104.00;31.67;;;;;;;;;;5016872;28;20041;-66
2021/12/27 13:15:08;;;;;;;108.55;29.45;;;;;;;;;;5016917;28;20044;-66
2021/12/27 13:17:37;;;;;;;133.80;34.92;;;;;;;;;;5038781;28;20124;-68
2021/12/27 13:20:03;;;;;;;106.55;31.30;;;;;;;;;;5024365;28;20037;-66
2021/12/27 13:22:49;;;;;;;104.00;29.73;;;;;;;;;;5033667;28;20067;-66
2021/12/27 13:25:28;;;;;;;98.32;28.55;;;;;;;;;;5050423;28;20116;-66
2021/12/27 13:28:24;;;;;;;95.15;30.02;;;;;;;;;;5016742;28;20091;-66
2021/12/27 13:31:10;;;;;;;147.15;37.03;;;;;;;;;;5016165;28;20080;-66
2021/12/27 13:33:42;;;;;;;134.82;36.47;;;3.30;99.90;;;;;;5020941;28;20060;-66
2021/12/27 13:36:11;;;;;;;94.50;30.88;;;;;;;;;;5053056;28;20063;-66
2021/12/27 13:38:38;;;;;;;94.93;30.38;;;;;;;;;;5036055;28;20045;-66
2021/12/27 13:41:23;;;;;;;99.63;31.23;;;3.30;99.90;;;;;;5053397;28;20033;-66
2021/12/27 13:43:57;;;;;;;102.65;31.45;;;;;;;;;;5035834;28;20041;-68
2021/12/27 13:46:34;;;;;;;119.90;32.42;;;;;;;;;;5032818;28;20515;-66
2021/12/27 13:49:02;;;;;;;87.80;30.48;;;3.00;99.90;;;;;;5018288;28;20037;-69
2021/12/27 13:51:30;;;;;;;99.00;31.60;;;3.40;99.90;;;;;;5015716;28;20142;-69
2021/12/27 13:54:02;;;;;;;111.85;34.47;;;;;;;;;;5015770;28;20045;-66
2021/12/27 13:56:29;;;;;;;95.00;30.75;;;;;;;;;;5015998;28;20037;-66
2021/12/27 13:58:55;;;;;;;95.88;29.13;;;;;;;;;;5037995;28;20037;-67
2021/12/27 14:01:22;;;;;;;106.72;33.72;;;;;;;;;;5033175;28;20045;-67
2021/12/27 14:03:49;;;;;;;101.13;31.17;;;;;;;;;;5016972;28;20051;-64
2021/12/27 14:06:15;;;;;;;104.78;32.50;;;;;;;;;;5030247;28;20041;-69
2021/12/27 14:08:54;;;;;;;97.10;31.33;;;;;;;;;;5035836;28;20456;-66